sensor_id;sensor_type;location;lat;lon;timestamp;temperature;humidity
26505;DHT22;19493;48.042;7.584;2024-03-17T00:00:20;9.50;99.90
26505;DHT22;19493;48.042;7.584;2024-03-17T00:02:46;9.50;99.90
26505;DHT22;19493;48.042;7.584;2024-03-17T00:05:12;9.40;99.90
26505;DHT22;19493;48.042;7.584;2024-03-17T00:07:39;9.30;99.90
26505;DHT22;19493;48.042;7.584;2024-03-17T00:10:04;9.30;99.90
26505;DHT22;19493;48.042;7.584;2024-03-17T00:12:30;9.20;99.90
26505;DHT22;19493;48.042;7.584;2024-03-17T00:14:56;9.20;99.90
26505;DHT22;19493;48.042;7.584;2024-03-17T00:17:21;9.10;99.90
26505;DHT22;19493;48.042;7.584;2024-03-17T00:19:48;9.10;99.90
26505;DHT22;19493;48.042;7.584;2024-03-17T00:22:13;9.10;99.90
26505;DHT22;19493;48.042;7.584;2024-03-17T00:24:40;9.00;99.90
26505;DHT22;19493;48.042;7.584;2024-03-17T00:27:06;9.00;99.90
26505;DHT22;19493;48.042;7.584;2024-03-17T00:29:32;8.90;99.90
26505;DHT22;19493;48.042;7.584;2024-03-17T00:31:58;8.90;99.90
26505;DHT22;19493;48.042;7.584;2024-03-17T00:34:24;8.80;99.90
26505;DHT22;19493;48.042;7.584;2024-03-17T00:36:49;8.70;99.90
26505;DHT22;19493;48.042;7.584;2024-03-17T00:39:17;8.70;99.90
26505;DHT22;19493;48.042;7.584;2024-03-17T00:41:43;8.60;99.90
26505;DHT22;19493;48.042;7.584;2024-03-17T00:44:09;8.60;99.90
26505;DHT22;19493;48.042;7.584;2024-03-17T00:46:34;8.50;99.90
26505;DHT22;19493;48.042;7.584;2024-03-17T00:49:00;8.50;99.90
26505;DHT22;19493;48.042;7.584;2024-03-17T00:51:26;8.50;99.90
26505;DHT22;19493;48.042;7.584;2024-03-17T00:53:51;8.50;99.90
26505;DHT22;19493;48.042;7.584;2024-03-17T00:56:17;8.40;99.90
26505;DHT22;19493;48.042;7.584;2024-03-17T00:58:42;8.40;99.90
26505;DHT22;19493;48.042;7.584;2024-03-17T01:01:10;8.40;99.90
26505;DHT22;19493;48.042;7.584;2024-03-17T01:03:35;8.50;99.90
26505;DHT22;19493;48.042;7.584;2024-03-17T01:06:04;8.50;99.90
26505;DHT22;19493;48.042;7.584;2024-03-17T01:08:30;8.50;99.90
26505;DHT22;19493;48.042;7.584;2024-03-17T01:10:55;8.50;99.90
26505;DHT22;19493;48.042;7.584;2024-03-17T01:13:21;8.50;99.90
26505;DHT22;19493;48.042;7.584;2024-03-17T01:15:51;8.60;99.90
26505;DHT22;19493;48.042;7.584;2024-03-17T01:18:17;8.60;99.90
26505;DHT22;19493;48.042;7.584;2024-03-17T01:20:44;8.60;99.90
26505;DHT22;19493;48.042;7.584;2024-03-17T01:23:09;8.60;99.90
26505;DHT22;19493;48.042;7.584;2024-03-17T01:25:36;8.60;99.90
26505;DHT22;19493;48.042;7.584;2024-03-17T01:28:03;8.60;99.90
26505;DHT22;19493;48.042;7.584;2024-03-17T01:30:29;8.60;99.90
26505;DHT22;19493;48.042;7.584;2024-03-17T01:32:55;8.50;99.90
26505;DHT22;19493;48.042;7.584;2024-03-17T01:35:20;8.50;99.90
26505;DHT22;19493;48.042;7.584;2024-03-17T01:37:47;8.50;99.90
26505;DHT22;19493;48.042;7.584;2024-03-17T01:40:12;8.40;99.90
26505;DHT22;19493;48.042;7.584;2024-03-17T01:42:39;8.40;99.90
26505;DHT22;19493;48.042;7.584;2024-03-17T01:47:46;8.40;99.90
26505;DHT22;19493;48.042;7.584;2024-03-17T01:50:11;8.40;99.90
26505;DHT22;19493;48.042;7.584;2024-03-17T01:52:39;8.30;99.90
26505;DHT22;19493;48.042;7.584;2024-03-17T01:55:05;8.20;99.90
26505;DHT22;19493;48.042;7.584;2024-03-17T01:57:31;8.10;99.90
26505;DHT22;19493;48.042;7.584;2024-03-17T01:59:57;8.10;99.90
26505;DHT22;19493;48.042;7.584;2024-03-17T02:02:23;8.10;99.90
26505;DHT22;19493;48.042;7.584;2024-03-17T02:04:49;8.00;99.90
26505;DHT22;19493;48.042;7.584;2024-03-17T02:07:15;8.00;99.90
26505;DHT22;19493;48.042;7.584;2024-03-17T02:09:41;7.90;99.90
26505;DHT22;19493;48.042;7.584;2024-03-17T02:12:08;7.80;99.90
26505;DHT22;19493;48.042;7.584;2024-03-17T02:14:35;7.70;99.90
26505;DHT22;19493;48.042;7.584;2024-03-17T02:17:00;7.60;99.90
26505;DHT22;19493;48.042;7.584;2024-03-17T02:19:26;7.50;99.90
26505;DHT22;19493;48.042;7.584;2024-03-17T02:21:51;7.40;99.90
26505;DHT22;19493;48.042;7.584;2024-03-17T02:24:17;7.20;99.90
26505;DHT22;19493;48.042;7.584;2024-03-17T02:26:42;7.20;99.90
26505;DHT22;19493;48.042;7.584;2024-03-17T02:29:08;7.10;99.90
26505;DHT22;19493;48.042;7.584;2024-03-17T02:31:33;7.10;99.90
26505;DHT22;19493;48.042;7.584;2024-03-17T02:33:59;7.10;99.90
26505;DHT22;19493;48.042;7.584;2024-03-17T02:36:24;7.00;99.90
26505;DHT22;19493;48.042;7.584;2024-03-17T02:38:50;7.00;99.90
26505;DHT22;19493;48.042;7.584;2024-03-17T02:41:34;6.90;99.90
26505;DHT22;19493;48.042;7.584;2024-03-17T02:43:59;6.80;99.90
26505;DHT22;19493;48.042;7.584;2024-03-17T02:46:25;6.70;99.90
26505;DHT22;19493;48.042;7.584;2024-03-17T02:48:53;6.70;99.90
26505;DHT22;19493;48.042;7.584;2024-03-17T02:51:20;6.70;99.90
26505;DHT22;19493;48.042;7.584;2024-03-17T02:53:46;6.60;99.90
26505;DHT22;19493;48.042;7.584;2024-03-17T02:56:13;6.60;99.90
26505;DHT22;19493;48.042;7.584;2024-03-17T02:58:41;6.50;99.90
26505;DHT22;19493;48.042;7.584;2024-03-17T03:01:07;6.40;99.90
26505;DHT22;19493;48.042;7.584;2024-03-17T03:03:36;6.40;99.90
26505;DHT22;19493;48.042;7.584;2024-03-17T03:06:01;6.20;99.90
26505;DHT22;19493;48.042;7.584;2024-03-17T03:08:30;6.20;99.90
26505;DHT22;19493;48.042;7.584;2024-03-17T03:10:55;6.30;99.90
26505;DHT22;19493;48.042;7.584;2024-03-17T03:13:21;6.30;99.90
26505;DHT22;19493;48.042;7.584;2024-03-17T03:15:48;6.30;99.90
26505;DHT22;19493;48.042;7.584;2024-03-17T03:18:14;6.20;99.90
26505;DHT22;19493;48.042;7.584;2024-03-17T03:20:40;6.10;99.90
26505;DHT22;19493;48.042;7.584;2024-03-17T03:23:05;6.00;99.90
26505;DHT22;19493;48.042;7.584;2024-03-17T03:25:31;6.00;99.90
26505;DHT22;19493;48.042;7.584;2024-03-17T03:27:57;5.80;99.90
26505;DHT22;19493;48.042;7.584;2024-03-17T03:30:23;5.80;99.90
26505;DHT22;19493;48.042;7.584;2024-03-17T03:32:49;5.80;99.90
26505;DHT22;19493;48.042;7.584;2024-03-17T03:35:15;5.80;99.90
26505;DHT22;19493;48.042;7.584;2024-03-17T03:37:41;5.80;99.90
26505;DHT22;19493;48.042;7.584;2024-03-17T03:40:08;5.80;99.90
26505;DHT22;19493;48.042;7.584;2024-03-17T03:42:43;5.80;99.90
26505;DHT22;19493;48.042;7.584;2024-03-17T03:45:09;5.80;99.90
26505;DHT22;19493;48.042;7.584;2024-03-17T03:47:39;5.80;99.90
26505;DHT22;19493;48.042;7.584;2024-03-17T03:50:09;5.70;99.90
26505;DHT22;19493;48.042;7.584;2024-03-17T03:52:38;5.60;99.90
26505;DHT22;19493;48.042;7.584;2024-03-17T03:55:06;5.60;99.90
26505;DHT22;19493;48.042;7.584;2024-03-17T03:57:33;5.60;99.90
26505;DHT22;19493;48.042;7.584;2024-03-17T04:00:03;5.60;99.90
26505;DHT22;19493;48.042;7.584;2024-03-17T04:02:42;5.50;99.90
26505;DHT22;19493;48.042;7.584;2024-03-17T04:05:08;5.40;99.90
26505;DHT22;19493;48.042;7.584;2024-03-17T04:07:34;5.30;99.90
26505;DHT22;19493;48.042;7.584;2024-03-17T04:10:04;5.30;99.90
26505;DHT22;19493;48.042;7.584;2024-03-17T04:12:30;5.20;99.90
26505;DHT22;19493;48.042;7.584;2024-03-17T04:14:57;5.20;99.90
26505;DHT22;19493;48.042;7.584;2024-03-17T04:17:23;5.10;99.90
26505;DHT22;19493;48.042;7.584;2024-03-17T04:19:52;5.10;99.90
26505;DHT22;19493;48.042;7.584;2024-03-17T04:22:19;5.30;99.90
26505;DHT22;19493;48.042;7.584;2024-03-17T04:24:47;5.20;99.90
26505;DHT22;19493;48.042;7.584;2024-03-17T04:27:14;5.20;99.90
26505;DHT22;19493;48.042;7.584;2024-03-17T04:29:39;5.20;99.90
26505;DHT22;19493;48.042;7.584;2024-03-17T04:32:06;5.20;99.90
26505;DHT22;19493;48.042;7.584;2024-03-17T04:34:32;5.20;99.90
26505;DHT22;19493;48.042;7.584;2024-03-17T04:36:58;5.20;99.90
26505;DHT22;19493;48.042;7.584;2024-03-17T04:39:24;5.20;99.90
26505;DHT22;19493;48.042;7.584;2024-03-17T04:41:50;5.20;99.90
26505;DHT22;19493;48.042;7.584;2024-03-17T04:44:17;5.10;99.90
26505;DHT22;19493;48.042;7.584;2024-03-17T04:46:43;5.10;99.90
26505;DHT22;19493;48.042;7.584;2024-03-17T04:49:09;5.20;99.90
26505;DHT22;19493;48.042;7.584;2024-03-17T04:51:35;5.20;99.90
26505;DHT22;19493;48.042;7.584;2024-03-17T04:54:01;5.20;99.90
26505;DHT22;19493;48.042;7.584;2024-03-17T04:56:29;5.20;99.90
26505;DHT22;19493;48.042;7.584;2024-03-17T04:58:54;5.10;99.90
26505;DHT22;19493;48.042;7.584;2024-03-17T05:01:21;5.10;99.90
26505;DHT22;19493;48.042;7.584;2024-03-17T05:03:46;5.10;99.90
26505;DHT22;19493;48.042;7.584;2024-03-17T05:06:12;5.00;99.90
26505;DHT22;19493;48.042;7.584;2024-03-17T05:08:37;5.00;99.90
26505;DHT22;19493;48.042;7.584;2024-03-17T05:11:05;5.00;99.90
26505;DHT22;19493;48.042;7.584;2024-03-17T05:13:32;5.00;99.90
26505;DHT22;19493;48.042;7.584;2024-03-17T05:15:57;5.00;99.90
26505;DHT22;19493;48.042;7.584;2024-03-17T05:18:24;5.00;99.90
26505;DHT22;19493;48.042;7.584;2024-03-17T05:21:02;5.10;99.90
26505;DHT22;19493;48.042;7.584;2024-03-17T05:23:33;5.10;99.90
26505;DHT22;19493;48.042;7.584;2024-03-17T05:25:59;5.20;99.90
26505;DHT22;19493;48.042;7.584;2024-03-17T05:28:29;5.20;99.90
26505;DHT22;19493;48.042;7.584;2024-03-17T05:30:55;5.30;99.90
26505;DHT22;19493;48.042;7.584;2024-03-17T05:33:23;5.30;99.90
26505;DHT22;19493;48.042;7.584;2024-03-17T05:35:59;5.40;99.90
26505;DHT22;19493;48.042;7.584;2024-03-17T05:38:29;5.30;99.90
26505;DHT22;19493;48.042;7.584;2024-03-17T05:41:00;5.30;99.90
26505;DHT22;19493;48.042;7.584;2024-03-17T05:43:28;5.30;99.90
26505;DHT22;19493;48.042;7.584;2024-03-17T05:45:57;5.20;99.90
26505;DHT22;19493;48.042;7.584;2024-03-17T05:48:24;5.20;99.90
26505;DHT22;19493;48.042;7.584;2024-03-17T05:50:50;5.20;99.90
26505;DHT22;19493;48.042;7.584;2024-03-17T05:53:17;5.20;99.90
26505;DHT22;19493;48.042;7.584;2024-03-17T05:55:43;5.30;99.90
26505;DHT22;19493;48.042;7.584;2024-03-17T05:58:09;5.40;99.90
26505;DHT22;19493;48.042;7.584;2024-03-17T06:00:36;5.40;99.90
26505;DHT22;19493;48.042;7.584;2024-03-17T06:03:02;5.40;99.90
26505;DHT22;19493;48.042;7.584;2024-03-17T06:05:31;5.40;99.90
26505;DHT22;19493;48.042;7.584;2024-03-17T06:07:57;5.50;99.90
26505;DHT22;19493;48.042;7.584;2024-03-17T06:10:23;5.50;99.90
26505;DHT22;19493;48.042;7.584;2024-03-17T06:12:50;5.50;99.90
26505;DHT22;19493;48.042;7.584;2024-03-17T06:15:16;5.50;99.90
26505;DHT22;19493;48.042;7.584;2024-03-17T06:17:42;5.60;99.90
26505;DHT22;19493;48.042;7.584;2024-03-17T06:20:08;5.60;99.90
26505;DHT22;19493;48.042;7.584;2024-03-17T06:22:38;5.70;99.90
26505;DHT22;19493;48.042;7.584;2024-03-17T06:25:05;5.80;99.90
26505;DHT22;19493;48.042;7.584;2024-03-17T06:27:30;5.90;99.90
26505;DHT22;19493;48.042;7.584;2024-03-17T06:29:56;6.00;99.90
26505;DHT22;19493;48.042;7.584;2024-03-17T06:32:22;6.00;99.90
26505;DHT22;19493;48.042;7.584;2024-03-17T06:34:49;6.10;99.90
26505;DHT22;19493;48.042;7.584;2024-03-17T06:37:14;6.20;99.90
26505;DHT22;19493;48.042;7.584;2024-03-17T06:39:40;6.20;99.90
26505;DHT22;19493;48.042;7.584;2024-03-17T06:42:05;6.30;99.90
26505;DHT22;19493;48.042;7.584;2024-03-17T06:44:31;6.40;99.90
26505;DHT22;19493;48.042;7.584;2024-03-17T06:46:59;6.50;99.90
26505;DHT22;19493;48.042;7.584;2024-03-17T06:49:24;6.60;99.90
26505;DHT22;19493;48.042;7.584;2024-03-17T06:51:50;6.70;99.90
26505;DHT22;19493;48.042;7.584;2024-03-17T06:54:16;6.80;99.90
26505;DHT22;19493;48.042;7.584;2024-03-17T06:56:41;7.00;99.90
26505;DHT22;19493;48.042;7.584;2024-03-17T06:59:07;7.10;99.90
26505;DHT22;19493;48.042;7.584;2024-03-17T07:01:32;7.20;99.90
26505;DHT22;19493;48.042;7.584;2024-03-17T07:03:59;7.40;99.90
26505;DHT22;19493;48.042;7.584;2024-03-17T07:06:24;7.50;99.90
26505;DHT22;19493;48.042;7.584;2024-03-17T07:08:52;7.70;99.90
26505;DHT22;19493;48.042;7.584;2024-03-17T07:11:18;7.90;99.90
26505;DHT22;19493;48.042;7.584;2024-03-17T07:13:43;8.10;99.90
26505;DHT22;19493;48.042;7.584;2024-03-17T07:16:09;8.20;99.90
26505;DHT22;19493;48.042;7.584;2024-03-17T07:18:35;8.30;99.90
26505;DHT22;19493;48.042;7.584;2024-03-17T07:21:02;8.40;99.90
26505;DHT22;19493;48.042;7.584;2024-03-17T07:23:32;8.50;99.90
26505;DHT22;19493;48.042;7.584;2024-03-17T07:25:59;8.60;99.90
26505;DHT22;19493;48.042;7.584;2024-03-17T07:28:26;8.70;99.90
26505;DHT22;19493;48.042;7.584;2024-03-17T07:30:56;8.70;99.90
26505;DHT22;19493;48.042;7.584;2024-03-17T07:33:22;8.70;99.90
26505;DHT22;19493;48.042;7.584;2024-03-17T07:35:56;8.70;99.90
26505;DHT22;19493;48.042;7.584;2024-03-17T07:38:29;8.80;99.90
26505;DHT22;19493;48.042;7.584;2024-03-17T07:41:00;9.00;99.90
26505;DHT22;19493;48.042;7.584;2024-03-17T07:43:27;9.30;99.90
26505;DHT22;19493;48.042;7.584;2024-03-17T07:46:07;9.60;99.90
26505;DHT22;19493;48.042;7.584;2024-03-17T07:48:36;10.00;99.90
26505;DHT22;19493;48.042;7.584;2024-03-17T07:51:07;10.40;99.90
26505;DHT22;19493;48.042;7.584;2024-03-17T07:53:35;10.70;99.90
26505;DHT22;19493;48.042;7.584;2024-03-17T07:56:10;11.10;99.90
26505;DHT22;19493;48.042;7.584;2024-03-17T07:58:38;11.20;99.90
26505;DHT22;19493;48.042;7.584;2024-03-17T08:01:05;11.30;99.90
26505;DHT22;19493;48.042;7.584;2024-03-17T08:03:33;11.30;99.90
26505;DHT22;19493;48.042;7.584;2024-03-17T08:06:00;11.40;99.90
26505;DHT22;19493;48.042;7.584;2024-03-17T08:08:26;11.40;99.90
26505;DHT22;19493;48.042;7.584;2024-03-17T08:10:52;11.40;99.90
26505;DHT22;19493;48.042;7.584;2024-03-17T08:13:18;11.40;99.90
26505;DHT22;19493;48.042;7.584;2024-03-17T08:15:45;11.60;99.90
26505;DHT22;19493;48.042;7.584;2024-03-17T08:18:12;11.60;99.90
26505;DHT22;19493;48.042;7.584;2024-03-17T08:20:38;11.70;99.90
26505;DHT22;19493;48.042;7.584;2024-03-17T08:23:05;11.80;99.90
26505;DHT22;19493;48.042;7.584;2024-03-17T08:25:34;11.90;99.90
26505;DHT22;19493;48.042;7.584;2024-03-17T08:28:00;12.00;99.90
26505;DHT22;19493;48.042;7.584;2024-03-17T08:30:26;12.10;99.90
26505;DHT22;19493;48.042;7.584;2024-03-17T08:32:52;12.20;99.90
26505;DHT22;19493;48.042;7.584;2024-03-17T08:35:17;12.20;99.90
26505;DHT22;19493;48.042;7.584;2024-03-17T08:37:43;12.20;99.90
26505;DHT22;19493;48.042;7.584;2024-03-17T08:40:11;12.30;99.90
26505;DHT22;19493;48.042;7.584;2024-03-17T08:42:36;12.30;99.90
26505;DHT22;19493;48.042;7.584;2024-03-17T08:45:02;12.30;99.90
26505;DHT22;19493;48.042;7.584;2024-03-17T08:47:28;12.40;99.90
26505;DHT22;19493;48.042;7.584;2024-03-17T08:49:54;12.40;99.90
26505;DHT22;19493;48.042;7.584;2024-03-17T08:52:19;12.30;99.90
26505;DHT22;19493;48.042;7.584;2024-03-17T08:54:46;12.40;99.90
26505;DHT22;19493;48.042;7.584;2024-03-17T08:57:13;12.50;99.90
26505;DHT22;19493;48.042;7.584;2024-03-17T08:59:39;12.50;99.90
26505;DHT22;19493;48.042;7.584;2024-03-17T09:02:05;12.60;99.90
26505;DHT22;19493;48.042;7.584;2024-03-17T09:04:37;12.70;99.90
26505;DHT22;19493;48.042;7.584;2024-03-17T09:07:02;12.70;99.90
26505;DHT22;19493;48.042;7.584;2024-03-17T09:09:29;12.70;99.90
26505;DHT22;19493;48.042;7.584;2024-03-17T09:11:55;12.70;99.90
26505;DHT22;19493;48.042;7.584;2024-03-17T09:14:20;12.60;99.90
26505;DHT22;19493;48.042;7.584;2024-03-17T09:16:47;12.50;99.90
26505;DHT22;19493;48.042;7.584;2024-03-17T09:19:13;12.50;99.90
26505;DHT22;19493;48.042;7.584;2024-03-17T09:21:38;12.60;99.90
26505;DHT22;19493;48.042;7.584;2024-03-17T09:24:06;12.70;99.90
26505;DHT22;19493;48.042;7.584;2024-03-17T09:26:33;12.80;99.90
26505;DHT22;19493;48.042;7.584;2024-03-17T09:29:04;12.90;99.90
26505;DHT22;19493;48.042;7.584;2024-03-17T09:31:30;13.00;99.90
26505;DHT22;19493;48.042;7.584;2024-03-17T09:33:59;13.00;99.90
26505;DHT22;19493;48.042;7.584;2024-03-17T09:36:25;13.10;99.90
26505;DHT22;19493;48.042;7.584;2024-03-17T09:38:51;13.10;99.90
26505;DHT22;19493;48.042;7.584;2024-03-17T09:41:24;13.20;99.90
26505;DHT22;19493;48.042;7.584;2024-03-17T09:43:53;13.30;99.90
26505;DHT22;19493;48.042;7.584;2024-03-17T09:46:20;13.30;99.90
26505;DHT22;19493;48.042;7.584;2024-03-17T09:48:46;13.30;99.90
26505;DHT22;19493;48.042;7.584;2024-03-17T09:51:23;13.30;99.90
26505;DHT22;19493;48.042;7.584;2024-03-17T09:53:49;13.40;99.90
26505;DHT22;19493;48.042;7.584;2024-03-17T09:56:18;13.50;99.90
26505;DHT22;19493;48.042;7.584;2024-03-17T09:58:48;13.40;99.90
26505;DHT22;19493;48.042;7.584;2024-03-17T10:01:14;13.30;99.90
26505;DHT22;19493;48.042;7.584;2024-03-17T10:06:13;13.20;99.90
26505;DHT22;19493;48.042;7.584;2024-03-17T10:08:43;13.20;99.90
26505;DHT22;19493;48.042;7.584;2024-03-17T10:11:09;13.20;99.90
26505;DHT22;19493;48.042;7.584;2024-03-17T10:13:34;13.20;99.90
26505;DHT22;19493;48.042;7.584;2024-03-17T10:16:00;13.20;99.90
26505;DHT22;19493;48.042;7.584;2024-03-17T10:18:25;13.20;99.90
26505;DHT22;19493;48.042;7.584;2024-03-17T10:20:51;13.20;99.90
26505;DHT22;19493;48.042;7.584;2024-03-17T10:23:21;13.30;99.90
26505;DHT22;19493;48.042;7.584;2024-03-17T10:25:47;13.30;99.90
26505;DHT22;19493;48.042;7.584;2024-03-17T10:28:15;13.30;99.90
26505;DHT22;19493;48.042;7.584;2024-03-17T10:30:41;13.40;99.90
26505;DHT22;19493;48.042;7.584;2024-03-17T10:33:19;13.40;99.90
26505;DHT22;19493;48.042;7.584;2024-03-17T10:35:48;13.40;99.90
26505;DHT22;19493;48.042;7.584;2024-03-17T10:38:14;13.40;99.90
26505;DHT22;19493;48.042;7.584;2024-03-17T10:40:41;13.50;99.90
26505;DHT22;19493;48.042;7.584;2024-03-17T10:43:07;13.70;99.90
26505;DHT22;19493;48.042;7.584;2024-03-17T10:45:33;14.00;99.90
26505;DHT22;19493;48.042;7.584;2024-03-17T10:48:08;14.20;99.90
26505;DHT22;19493;48.042;7.584;2024-03-17T10:50:38;14.30;99.90
26505;DHT22;19493;48.042;7.584;2024-03-17T10:53:06;14.40;99.90
26505;DHT22;19493;48.042;7.584;2024-03-17T10:55:45;14.50;99.90
26505;DHT22;19493;48.042;7.584;2024-03-17T11:00:45;14.40;99.90
26505;DHT22;19493;48.042;7.584;2024-03-17T11:03:13;14.40;99.90
26505;DHT22;19493;48.042;7.584;2024-03-17T11:05:39;14.40;99.90
26505;DHT22;19493;48.042;7.584;2024-03-17T11:08:06;14.40;99.90
26505;DHT22;19493;48.042;7.584;2024-03-17T11:10:35;14.40;99.90
26505;DHT22;19493;48.042;7.584;2024-03-17T11:13:04;14.10;99.90
26505;DHT22;19493;48.042;7.584;2024-03-17T11:20:42;14.30;99.90
26505;DHT22;19493;48.042;7.584;2024-03-17T11:23:08;14.60;99.90
26505;DHT22;19493;48.042;7.584;2024-03-17T11:25:38;14.90;99.90
26505;DHT22;19493;48.042;7.584;2024-03-17T11:28:05;14.90;99.90
26505;DHT22;19493;48.042;7.584;2024-03-17T11:41:36;15.00;99.90
26505;DHT22;19493;48.042;7.584;2024-03-17T11:47:05;15.10;99.90
26505;DHT22;19493;48.042;7.584;2024-03-17T11:54:36;15.30;99.90
26505;DHT22;19493;48.042;7.584;2024-03-17T11:57:21;15.30;99.90
26505;DHT22;19493;48.042;7.584;2024-03-17T11:59:48;15.10;99.90
26505;DHT22;19493;48.042;7.584;2024-03-17T12:02:34;15.00;99.90
26505;DHT22;19493;48.042;7.584;2024-03-17T12:05:03;14.80;99.90
26505;DHT22;19493;48.042;7.584;2024-03-17T12:07:31;14.60;99.90
26505;DHT22;19493;48.042;7.584;2024-03-17T12:09:57;14.50;99.90
26505;DHT22;19493;48.042;7.584;2024-03-17T12:12:24;14.40;99.90
26505;DHT22;19493;48.042;7.584;2024-03-17T12:15:00;14.50;99.90
26505;DHT22;19493;48.042;7.584;2024-03-17T12:17:26;14.60;99.90
26505;DHT22;19493;48.042;7.584;2024-03-17T12:19:52;14.50;99.90
26505;DHT22;19493;48.042;7.584;2024-03-17T12:22:22;14.50;99.90
26505;DHT22;19493;48.042;7.584;2024-03-17T12:24:52;14.20;99.90
26505;DHT22;19493;48.042;7.584;2024-03-17T12:27:20;14.00;99.90
26505;DHT22;19493;48.042;7.584;2024-03-17T12:29:48;13.80;99.90
26505;DHT22;19493;48.042;7.584;2024-03-17T12:32:19;13.70;99.90
26505;DHT22;19493;48.042;7.584;2024-03-17T12:34:50;13.60;99.90
26505;DHT22;19493;48.042;7.584;2024-03-17T12:37:18;13.60;99.90
26505;DHT22;19493;48.042;7.584;2024-03-17T12:39:44;13.60;99.90
26505;DHT22;19493;48.042;7.584;2024-03-17T12:42:11;13.60;99.90
26505;DHT22;19493;48.042;7.584;2024-03-17T12:44:46;13.60;99.90
26505;DHT22;19493;48.042;7.584;2024-03-17T12:47:17;13.70;99.90
26505;DHT22;19493;48.042;7.584;2024-03-17T12:49:46;13.90;99.90
26505;DHT22;19493;48.042;7.584;2024-03-17T12:52:24;14.10;99.90
26505;DHT22;19493;48.042;7.584;2024-03-17T12:55:19;14.20;99.90
26505;DHT22;19493;48.042;7.584;2024-03-17T13:01:01;14.30;99.90
26505;DHT22;19493;48.042;7.584;2024-03-17T13:03:32;14.30;99.90
26505;DHT22;19493;48.042;7.584;2024-03-17T13:05:59;14.40;99.90
26505;DHT22;19493;48.042;7.584;2024-03-17T13:08:26;14.40;99.90
26505;DHT22;19493;48.042;7.584;2024-03-17T13:10:51;14.50;99.90
26505;DHT22;19493;48.042;7.584;2024-03-17T13:13:17;14.60;99.90
26505;DHT22;19493;48.042;7.584;2024-03-17T13:15:43;14.60;99.90
26505;DHT22;19493;48.042;7.584;2024-03-17T13:18:09;14.70;99.90
26505;DHT22;19493;48.042;7.584;2024-03-17T13:20:40;14.70;99.90
26505;DHT22;19493;48.042;7.584;2024-03-17T13:23:07;14.70;99.90
26505;DHT22;19493;48.042;7.584;2024-03-17T13:25:33;14.70;99.90
26505;DHT22;19493;48.042;7.584;2024-03-17T13:28:01;14.80;99.90
26505;DHT22;19493;48.042;7.584;2024-03-17T13:30:27;14.90;99.90
26505;DHT22;19493;48.042;7.584;2024-03-17T13:32:54;15.00;99.90
26505;DHT22;19493;48.042;7.584;2024-03-17T13:35:27;14.80;99.90
26505;DHT22;19493;48.042;7.584;2024-03-17T13:37:55;14.70;99.90
26505;DHT22;19493;48.042;7.584;2024-03-17T13:40:22;14.60;99.90
26505;DHT22;19493;48.042;7.584;2024-03-17T13:42:49;14.60;99.90
26505;DHT22;19493;48.042;7.584;2024-03-17T13:45:16;14.70;99.90
26505;DHT22;19493;48.042;7.584;2024-03-17T13:47:46;15.00;99.90
26505;DHT22;19493;48.042;7.584;2024-03-17T13:50:12;15.10;99.90
26505;DHT22;19493;48.042;7.584;2024-03-17T13:52:39;15.10;99.90
26505;DHT22;19493;48.042;7.584;2024-03-17T13:55:06;14.90;99.90
26505;DHT22;19493;48.042;7.584;2024-03-17T13:57:32;14.80;99.90
26505;DHT22;19493;48.042;7.584;2024-03-17T13:59:58;14.70;99.90
26505;DHT22;19493;48.042;7.584;2024-03-17T14:02:24;14.80;99.90
26505;DHT22;19493;48.042;7.584;2024-03-17T14:04:49;14.90;99.90
26505;DHT22;19493;48.042;7.584;2024-03-17T14:07:15;15.00;99.90
26505;DHT22;19493;48.042;7.584;2024-03-17T14:09:41;14.80;99.90
26505;DHT22;19493;48.042;7.584;2024-03-17T14:12:08;14.80;99.90
26505;DHT22;19493;48.042;7.584;2024-03-17T14:14:33;14.70;99.90
26505;DHT22;19493;48.042;7.584;2024-03-17T14:16:59;14.60;99.90
26505;DHT22;19493;48.042;7.584;2024-03-17T14:19:24;14.40;99.90
26505;DHT22;19493;48.042;7.584;2024-03-17T14:21:50;14.30;99.90
26505;DHT22;19493;48.042;7.584;2024-03-17T14:24:16;14.20;99.90
26505;DHT22;19493;48.042;7.584;2024-03-17T14:26:42;14.00;99.90
26505;DHT22;19493;48.042;7.584;2024-03-17T14:29:08;13.90;99.90
26505;DHT22;19493;48.042;7.584;2024-03-17T14:31:33;13.80;99.90
26505;DHT22;19493;48.042;7.584;2024-03-17T14:34:02;13.70;99.90
26505;DHT22;19493;48.042;7.584;2024-03-17T14:36:31;13.80;99.90
26505;DHT22;19493;48.042;7.584;2024-03-17T14:39:01;13.70;99.90
26505;DHT22;19493;48.042;7.584;2024-03-17T14:41:30;13.70;99.90
26505;DHT22;19493;48.042;7.584;2024-03-17T14:43:56;13.70;99.90
26505;DHT22;19493;48.042;7.584;2024-03-17T14:46:23;13.60;99.90
26505;DHT22;19493;48.042;7.584;2024-03-17T14:48:49;13.40;99.90
26505;DHT22;19493;48.042;7.584;2024-03-17T14:51:19;13.30;99.90
26505;DHT22;19493;48.042;7.584;2024-03-17T14:53:46;13.30;99.90
26505;DHT22;19493;48.042;7.584;2024-03-17T14:56:18;13.20;99.90
26505;DHT22;19493;48.042;7.584;2024-03-17T14:58:45;13.10;99.90
26505;DHT22;19493;48.042;7.584;2024-03-17T15:01:12;13.10;99.90
26505;DHT22;19493;48.042;7.584;2024-03-17T15:03:38;13.00;99.90
26505;DHT22;19493;48.042;7.584;2024-03-17T15:06:14;12.90;99.90
26505;DHT22;19493;48.042;7.584;2024-03-17T15:08:43;12.80;99.90
26505;DHT22;19493;48.042;7.584;2024-03-17T15:11:10;12.70;99.90
26505;DHT22;19493;48.042;7.584;2024-03-17T15:13:36;12.70;99.90
26505;DHT22;19493;48.042;7.584;2024-03-17T15:16:04;12.60;99.90
26505;DHT22;19493;48.042;7.584;2024-03-17T15:18:31;12.60;99.90
26505;DHT22;19493;48.042;7.584;2024-03-17T15:20:57;12.60;99.90
26505;DHT22;19493;48.042;7.584;2024-03-17T15:23:22;12.60;99.90
26505;DHT22;19493;48.042;7.584;2024-03-17T15:26:02;12.50;99.90
26505;DHT22;19493;48.042;7.584;2024-03-17T15:28:35;12.50;99.90
26505;DHT22;19493;48.042;7.584;2024-03-17T15:31:04;12.50;99.90
26505;DHT22;19493;48.042;7.584;2024-03-17T15:33:32;12.50;99.90
26505;DHT22;19493;48.042;7.584;2024-03-17T15:36:00;12.40;99.90
26505;DHT22;19493;48.042;7.584;2024-03-17T15:38:27;12.40;99.90
26505;DHT22;19493;48.042;7.584;2024-03-17T15:40:52;12.30;99.90
26505;DHT22;19493;48.042;7.584;2024-03-17T15:43:18;12.20;99.90
26505;DHT22;19493;48.042;7.584;2024-03-17T15:45:43;12.10;99.90
26505;DHT22;19493;48.042;7.584;2024-03-17T15:48:09;12.10;99.90
26505;DHT22;19493;48.042;7.584;2024-03-17T15:50:35;12.00;99.90
26505;DHT22;19493;48.042;7.584;2024-03-17T15:53:01;12.00;99.90
26505;DHT22;19493;48.042;7.584;2024-03-17T15:55:27;12.00;99.90
26505;DHT22;19493;48.042;7.584;2024-03-17T15:57:52;12.00;99.90
26505;DHT22;19493;48.042;7.584;2024-03-17T16:00:19;12.10;99.90
26505;DHT22;19493;48.042;7.584;2024-03-17T16:02:45;12.10;99.90
26505;DHT22;19493;48.042;7.584;2024-03-17T16:05:15;12.20;99.90
26505;DHT22;19493;48.042;7.584;2024-03-17T16:07:42;12.20;99.90
26505;DHT22;19493;48.042;7.584;2024-03-17T16:10:11;12.20;99.90
26505;DHT22;19493;48.042;7.584;2024-03-17T16:12:39;12.20;99.90